sensor_id;sensor_type;location;lat;lon;timestamp;pressure;altitude;pressure_sealevel;temperature;humidity
2785;BME280;57944;48.722;9.316;2023-02-03T00:00:46;99333.00;;;5.23;100.00
2785;BME280;57944;48.722;9.316;2023-02-03T00:03:16;99339.84;;;5.32;100.00
2785;BME280;57944;48.722;9.316;2023-02-03T00:05:46;99335.34;;;5.14;100.00
2785;BME280;57944;48.722;9.316;2023-02-03T00:08:18;99329.63;;;5.12;100.00
2785;BME280;57944;48.722;9.316;2023-02-03T00:10:49;99326.72;;;5.17;100.00
2785;BME280;57944;48.722;9.316;2023-02-03T00:13:22;99329.88;;;5.09;100.00
2785;BME280;57944;48.722;9.316;2023-02-03T00:15:52;99313.66;;;5.12;100.00
2785;BME280;57944;48.722;9.316;2023-02-03T00:18:22;99317.22;;;5.30;100.00
2785;BME280;57944;48.722;9.316;2023-02-03T00:20:53;99320.88;;;5.17;100.00
2785;BME280;57944;48.722;9.316;2023-02-03T00:23:23;99319.16;;;4.96;100.00
2785;BME280;57944;48.722;9.316;2023-02-03T00:25:56;99317.88;;;5.02;100.00
2785;BME280;57944;48.722;9.316;2023-02-03T00:28:31;99323.09;;;4.89;100.00
2785;BME280;57944;48.722;9.316;2023-02-03T00:31:01;99319.81;;;4.98;100.00
2785;BME280;57944;48.722;9.316;2023-02-03T00:33:31;99318.28;;;5.07;100.00
2785;BME280;57944;48.722;9.316;2023-02-03T00:36:05;99319.81;;;4.98;100.00
2785;BME280;57944;48.722;9.316;2023-02-03T00:38:35;99318.66;;;5.02;100.00
2785;BME280;57944;48.722;9.316;2023-02-03T00:41:05;99302.31;;;5.06;100.00
2785;BME280;57944;48.722;9.316;2023-02-03T00:43:38;99315.25;;;4.92;100.00
2785;BME280;57944;48.722;9.316;2023-02-03T00:46:08;99326.69;;;5.07;100.00
2785;BME280;57944;48.722;9.316;2023-02-03T00:48:38;99334.13;;;4.88;100.00
2785;BME280;57944;48.722;9.316;2023-02-03T00:51:09;99343.19;;;4.90;100.00
2785;BME280;57944;48.722;9.316;2023-02-03T00:53:39;99345.56;;;4.92;100.00
2785;BME280;57944;48.722;9.316;2023-02-03T00:56:09;99356.41;;;4.83;100.00
2785;BME280;57944;48.722;9.316;2023-02-03T00:58:42;99354.34;;;4.88;100.00
2785;BME280;57944;48.722;9.316;2023-02-03T01:01:12;99354.56;;;4.85;100.00
2785;BME280;57944;48.722;9.316;2023-02-03T01:03:42;99360.72;;;4.92;100.00
2785;BME280;57944;48.722;9.316;2023-02-03T01:06:15;99350.47;;;5.05;100.00
2785;BME280;57944;48.722;9.316;2023-02-03T01:08:47;99346.13;;;4.96;100.00
2785;BME280;57944;48.722;9.316;2023-02-03T01:11:20;99360.25;;;4.98;100.00
2785;BME280;57944;48.722;9.316;2023-02-03T01:13:55;99358.25;;;5.13;100.00
2785;BME280;57944;48.722;9.316;2023-02-03T01:16:29;99359.59;;;4.96;100.00
2785;BME280;57944;48.722;9.316;2023-02-03T01:19:02;99365.25;;;5.09;100.00
2785;BME280;57944;48.722;9.316;2023-02-03T01:21:33;99347.81;;;5.06;100.00
2785;BME280;57944;48.722;9.316;2023-02-03T01:24:03;99325.91;;;4.96;100.00
2785;BME280;57944;48.722;9.316;2023-02-03T01:26:33;99279.66;;;4.95;100.00
2785;BME280;57944;48.722;9.316;2023-02-03T01:29:06;99297.31;;;4.95;100.00
2785;BME280;57944;48.722;9.316;2023-02-03T01:31:38;99300.97;;;5.02;100.00
2785;BME280;57944;48.722;9.316;2023-02-03T01:34:12;99312.94;;;5.21;100.00
2785;BME280;57944;48.722;9.316;2023-02-03T01:36:44;99320.50;;;5.00;100.00
2785;BME280;57944;48.722;9.316;2023-02-03T01:39:15;99324.16;;;5.07;100.00
2785;BME280;57944;48.722;9.316;2023-02-03T01:41:45;99314.03;;;5.07;100.00
2785;BME280;57944;48.722;9.316;2023-02-03T01:44:43;99310.94;;;5.25;100.00
2785;BME280;57944;48.722;9.316;2023-02-03T01:47:27;99318.00;;;5.21;100.00
2785;BME280;57944;48.722;9.316;2023-02-03T01:50:09;99307.56;;;4.93;100.00
2785;BME280;57944;48.722;9.316;2023-02-03T01:52:45;99306.81;;;5.03;100.00
2785;BME280;57944;48.722;9.316;2023-02-03T01:55:23;99305.03;;;5.14;100.00
2785;BME280;57944;48.722;9.316;2023-02-03T01:58:01;99309.00;;;5.07;100.00
2785;BME280;57944;48.722;9.316;2023-02-03T02:00:35;99303.94;;;5.07;100.00
2785;BME280;57944;48.722;9.316;2023-02-03T02:03:07;99313.72;;;5.01;100.00
2785;BME280;57944;48.722;9.316;2023-02-03T02:05:45;99311.44;;;4.98;100.00
2785;BME280;57944;48.722;9.316;2023-02-03T02:08:19;99298.13;;;5.17;100.00
2785;BME280;57944;48.722;9.316;2023-02-03T02:10:52;99292.47;;;5.03;100.00
2785;BME280;57944;48.722;9.316;2023-02-03T02:13:23;99292.78;;;4.89;100.00
2785;BME280;57944;48.722;9.316;2023-02-03T02:16:05;99270.28;;;4.86;100.00
2785;BME280;57944;48.722;9.316;2023-02-03T02:18:57;99271.94;;;4.76;100.00
2785;BME280;57944;48.722;9.316;2023-02-03T02:21:55;99256.25;;;4.72;100.00
2785;BME280;57944;48.722;9.316;2023-02-03T02:25:01;99228.47;;;4.72;100.00
2785;BME280;57944;48.722;9.316;2023-02-03T02:34:30;99227.38;;;4.33;100.00
2785;BME280;57944;48.722;9.316;2023-02-03T02:37:14;99235.00;;;4.21;100.00
2785;BME280;57944;48.722;9.316;2023-02-03T02:39:58;99226.00;;;4.29;100.00
2785;BME280;57944;48.722;9.316;2023-02-03T02:42:38;99226.41;;;4.24;100.00
2785;BME280;57944;48.722;9.316;2023-02-03T02:45:18;99201.47;;;4.31;100.00
2785;BME280;57944;48.722;9.316;2023-02-03T02:47:52;99198.19;;;4.19;100.00
2785;BME280;57944;48.722;9.316;2023-02-03T02:50:34;99192.41;;;4.07;100.00
2785;BME280;57944;48.722;9.316;2023-02-03T02:53:09;99181.38;;;4.08;100.00
2785;BME280;57944;48.722;9.316;2023-02-03T02:55:43;99205.03;;;3.96;100.00
2785;BME280;57944;48.722;9.316;2023-02-03T02:58:18;99240.34;;;3.96;100.00
2785;BME280;57944;48.722;9.316;2023-02-03T03:00:49;99243.53;;;3.98;100.00
2785;BME280;57944;48.722;9.316;2023-02-03T03:03:21;99251.47;;;3.93;100.00
2785;BME280;57944;48.722;9.316;2023-02-03T03:05:59;99261.31;;;4.08;100.00
2785;BME280;57944;48.722;9.316;2023-02-03T03:08:40;99268.34;;;4.25;100.00
2785;BME280;57944;48.722;9.316;2023-02-03T03:11:12;99261.63;;;4.46;100.00
2785;BME280;57944;48.722;9.316;2023-02-03T03:13:48;99254.00;;;4.58;100.00
2785;BME280;57944;48.722;9.316;2023-02-03T03:16:23;99238.81;;;4.69;100.00
2785;BME280;57944;48.722;9.316;2023-02-03T03:18:58;99238.59;;;4.82;100.00
2785;BME280;57944;48.722;9.316;2023-02-03T03:21:37;99247.13;;;4.81;100.00
2785;BME280;57944;48.722;9.316;2023-02-03T03:24:15;99239.19;;;4.85;100.00
2785;BME280;57944;48.722;9.316;2023-02-03T03:26:52;99220.75;;;4.95;100.00
2785;BME280;57944;48.722;9.316;2023-02-03T03:29:30;99223.56;;;5.01;100.00
2785;BME280;57944;48.722;9.316;2023-02-03T03:32:02;99234.78;;;5.08;100.00
2785;BME280;57944;48.722;9.316;2023-02-03T03:34:33;99237.66;;;5.04;100.00
2785;BME280;57944;48.722;9.316;2023-02-03T03:37:16;99243.06;;;5.20;100.00
2785;BME280;57944;48.722;9.316;2023-02-03T03:39:54;99252.22;;;5.11;100.00
2785;BME280;57944;48.722;9.316;2023-02-03T03:42:30;99251.41;;;5.11;100.00
2785;BME280;57944;48.722;9.316;2023-02-03T03:45:09;99261.63;;;5.09;100.00
2785;BME280;57944;48.722;9.316;2023-02-03T03:47:51;99256.41;;;5.22;100.00
2785;BME280;57944;48.722;9.316;2023-02-03T03:50:29;99272.41;;;5.32;100.00
2785;BME280;57944;48.722;9.316;2023-02-03T03:53:06;99273.88;;;5.35;100.00
2785;BME280;57944;48.722;9.316;2023-02-03T03:55:39;99282.91;;;5.28;100.00
2785;BME280;57944;48.722;9.316;2023-02-03T03:58:14;99296.88;;;5.32;100.00
2785;BME280;57944;48.722;9.316;2023-02-03T04:00:47;99301.09;;;5.22;100.00
2785;BME280;57944;48.722;9.316;2023-02-03T04:03:23;99307.22;;;5.29;100.00
2785;BME280;57944;48.722;9.316;2023-02-03T04:05:54;99306.06;;;5.33;100.00
2785;BME280;57944;48.722;9.316;2023-02-03T04:08:27;99316.78;;;5.25;100.00
2785;BME280;57944;48.722;9.316;2023-02-03T04:10:57;99312.09;;;5.21;100.00
2785;BME280;57944;48.722;9.316;2023-02-03T04:13:27;99318.28;;;5.28;100.00
2785;BME280;57944;48.722;9.316;2023-02-03T04:15:57;99311.50;;;5.28;100.00
2785;BME280;57944;48.722;9.316;2023-02-03T04:18:27;99306.06;;;5.33;100.00
2785;BME280;57944;48.722;9.316;2023-02-03T04:20:57;99290.97;;;5.22;100.00
2785;BME280;57944;48.722;9.316;2023-02-03T04:23:29;99293.88;;;5.17;100.00
2785;BME280;57944;48.722;9.316;2023-02-03T04:26:00;99286.19;;;5.19;100.00
2785;BME280;57944;48.722;9.316;2023-02-03T04:28:30;99285.69;;;5.04;100.00
2785;BME280;57944;48.722;9.316;2023-02-03T04:31:00;99283.66;;;4.98;100.00
2785;BME280;57944;48.722;9.316;2023-02-03T04:33:30;99282.31;;;4.93;100.00
2785;BME280;57944;48.722;9.316;2023-02-03T04:36:00;99286.28;;;4.75;100.00
2785;BME280;57944;48.722;9.316;2023-02-03T04:38:33;99273.81;;;4.74;100.00
2785;BME280;57944;48.722;9.316;2023-02-03T04:41:03;99275.66;;;4.72;100.00
2785;BME280;57944;48.722;9.316;2023-02-03T04:43:33;99278.88;;;4.62;100.00
2785;BME280;57944;48.722;9.316;2023-02-03T04:46:04;99278.66;;;4.65;100.00
2785;BME280;57944;48.722;9.316;2023-02-03T04:48:34;99264.84;;;4.69;100.00
2785;BME280;57944;48.722;9.316;2023-02-03T04:51:07;99272.00;;;4.64;100.00
2785;BME280;57944;48.722;9.316;2023-02-03T04:53:39;99276.78;;;4.46;100.00
2785;BME280;57944;48.722;9.316;2023-02-03T04:56:09;99283.56;;;4.46;100.00
2785;BME280;57944;48.722;9.316;2023-02-03T04:58:41;99282.19;;;4.42;100.00
2785;BME280;57944;48.722;9.316;2023-02-03T05:01:11;99283.13;;;4.41;100.00
2785;BME280;57944;48.722;9.316;2023-02-03T05:03:41;99274.84;;;4.39;100.00
2785;BME280;57944;48.722;9.316;2023-02-03T05:06:11;99254.88;;;4.47;100.00
2785;BME280;57944;48.722;9.316;2023-02-03T05:08:44;99262.38;;;4.58;100.00
2785;BME280;57944;48.722;9.316;2023-02-03T05:11:14;99266.09;;;4.54;100.00
2785;BME280;57944;48.722;9.316;2023-02-03T05:13:44;99259.97;;;4.57;100.00
2785;BME280;57944;48.722;9.316;2023-02-03T05:16:14;99252.53;;;4.55;100.00
2785;BME280;57944;48.722;9.316;2023-02-03T05:18:44;99263.13;;;4.49;100.00
2785;BME280;57944;48.722;9.316;2023-02-03T05:21:14;99269.56;;;4.42;100.00
2785;BME280;57944;48.722;9.316;2023-02-03T05:23:47;99275.31;;;4.44;100.00
2785;BME280;57944;48.722;9.316;2023-02-03T05:26:17;99275.31;;;4.44;100.00
2785;BME280;57944;48.722;9.316;2023-02-03T05:28:47;99278.81;;;4.53;100.00
2785;BME280;57944;48.722;9.316;2023-02-03T05:31:19;99277.94;;;4.42;100.00
2785;BME280;57944;48.722;9.316;2023-02-03T05:33:49;99262.88;;;4.52;100.00
2785;BME280;57944;48.722;9.316;2023-02-03T05:36:19;99277.34;;;4.50;100.00
2785;BME280;57944;48.722;9.316;2023-02-03T05:38:52;99283.28;;;4.60;100.00
2785;BME280;57944;48.722;9.316;2023-02-03T05:41:22;99297.31;;;4.42;100.00
2785;BME280;57944;48.722;9.316;2023-02-03T05:44:04;99296.84;;;4.48;100.00
2785;BME280;57944;48.722;9.316;2023-02-03T05:46:34;99309.66;;;4.56;100.00
2785;BME280;57944;48.722;9.316;2023-02-03T05:49:04;99296.13;;;4.57;100.00
2785;BME280;57944;48.722;9.316;2023-02-03T05:51:34;99294.75;;;4.53;100.00
2785;BME280;57944;48.722;9.316;2023-02-03T05:54:08;99292.63;;;4.48;100.00
2785;BME280;57944;48.722;9.316;2023-02-03T05:56:38;99282.53;;;4.48;100.00
2785;BME280;57944;48.722;9.316;2023-02-03T05:59:09;99282.72;;;4.45;100.00
2785;BME280;57944;48.722;9.316;2023-02-03T06:01:39;99276.88;;;4.45;100.00
2785;BME280;57944;48.722;9.316;2023-02-03T06:04:09;99266.78;;;4.45;100.00
2785;BME280;57944;48.722;9.316;2023-02-03T06:06:39;99264.50;;;4.42;100.00
2785;BME280;57944;48.722;9.316;2023-02-03T06:09:11;99273.38;;;4.36;100.00
2785;BME280;57944;48.722;9.316;2023-02-03T06:11:41;99272.34;;;4.39;100.00
2785;BME280;57944;48.722;9.316;2023-02-03T06:14:12;99286.19;;;4.44;100.00
2785;BME280;57944;48.722;9.316;2023-02-03T06:16:42;99277.34;;;4.50;100.00
2785;BME280;57944;48.722;9.316;2023-02-03T06:19:12;99281.03;;;4.46;100.00
2785;BME280;57944;48.722;9.316;2023-02-03T06:21:42;99266.19;;;4.53;100.00
2785;BME280;57944;48.722;9.316;2023-02-03T06:24:15;99269.47;;;4.43;100.00
2785;BME280;57944;48.722;9.316;2023-02-03T06:26:45;99264.50;;;4.42;100.00
2785;BME280;57944;48.722;9.316;2023-02-03T06:29:15;99259.03;;;4.37;100.00
2785;BME280;57944;48.722;9.316;2023-02-03T06:31:45;99273.91;;;4.40;100.00
2785;BME280;57944;48.722;9.316;2023-02-03T06:34:15;99277.31;;;4.29;100.00
2785;BME280;57944;48.722;9.316;2023-02-03T06:36:45;99269.81;;;4.39;100.00
2785;BME280;57944;48.722;9.316;2023-02-03T06:39:18;99264.88;;;4.37;100.00
2785;BME280;57944;48.722;9.316;2023-02-03T06:41:47;99255.78;;;4.46;100.00
2785;BME280;57944;48.722;9.316;2023-02-03T06:44:18;99252.94;;;4.39;100.00
2785;BME280;57944;48.722;9.316;2023-02-03T06:46:48;99268.06;;;4.39;100.00
2785;BME280;57944;48.722;9.316;2023-02-03T06:49:18;99252.81;;;4.41;100.00
2785;BME280;57944;48.722;9.316;2023-02-03T06:51:48;99254.47;;;4.31;100.00
2785;BME280;57944;48.722;9.316;2023-02-03T06:54:21;99254.13;;;4.35;100.00
2785;BME280;57944;48.722;9.316;2023-02-03T06:56:51;99236.69;;;4.32;100.00
2785;BME280;57944;48.722;9.316;2023-02-03T06:59:21;99234.97;;;4.33;100.00
2785;BME280;57944;48.722;9.316;2023-02-03T07:01:51;99239.56;;;4.28;100.00
2785;BME280;57944;48.722;9.316;2023-02-03T07:04:21;99240.84;;;4.22;100.00
2785;BME280;57944;48.722;9.316;2023-02-03T07:06:54;99236.09;;;4.29;100.00
2785;BME280;57944;48.722;9.316;2023-02-03T07:09:27;99242.56;;;4.21;100.00
2785;BME280;57944;48.722;9.316;2023-02-03T07:11:57;99248.63;;;4.30;100.00
2785;BME280;57944;48.722;9.316;2023-02-03T07:14:27;99244.38;;;4.31;100.00
2785;BME280;57944;48.722;9.316;2023-02-03T07:16:57;99245.16;;;4.31;100.00
2785;BME280;57944;48.722;9.316;2023-02-03T07:19:27;99241.50;;;4.35;100.00
2785;BME280;57944;48.722;9.316;2023-02-03T07:21:57;99239.97;;;4.44;100.00
2785;BME280;57944;48.722;9.316;2023-02-03T07:24:29;99236.44;;;4.56;100.00
2785;BME280;57944;48.722;9.316;2023-02-03T07:26:59;99228.09;;;4.56;100.00
2785;BME280;57944;48.722;9.316;2023-02-03T07:29:30;99226.59;;;4.53;100.00
2785;BME280;57944;48.722;9.316;2023-02-03T07:32:00;99218.03;;;4.44;100.00
2785;BME280;57944;48.722;9.316;2023-02-03T07:34:30;99237.25;;;4.36;100.00
2785;BME280;57944;48.722;9.316;2023-02-03T07:37:00;99240.22;;;4.41;100.00
2785;BME280;57944;48.722;9.316;2023-02-03T07:39:33;99257.38;;;4.47;100.00
2785;BME280;57944;48.722;9.316;2023-02-03T07:42:03;99257.13;;;4.50;100.00
2785;BME280;57944;48.722;9.316;2023-02-03T07:44:36;99256.69;;;4.45;100.00
2785;BME280;57944;48.722;9.316;2023-02-03T07:47:06;99257.13;;;4.50;100.00
2785;BME280;57944;48.722;9.316;2023-02-03T07:49:38;99268.53;;;4.44;100.00
2785;BME280;57944;48.722;9.316;2023-02-03T07:52:08;99268.97;;;4.50;100.00
2785;BME280;57944;48.722;9.316;2023-02-03T07:54:41;99289.06;;;4.40;100.00
2785;BME280;57944;48.722;9.316;2023-02-03T07:57:11;99284.94;;;4.39;100.00
2785;BME280;57944;48.722;9.316;2023-02-03T07:59:41;99283.72;;;4.33;100.00
2785;BME280;57944;48.722;9.316;2023-02-03T08:02:11;99286.78;;;4.37;100.00
2785;BME280;57944;48.722;9.316;2023-02-03T08:04:41;99295.50;;;4.44;100.00
2785;BME280;57944;48.722;9.316;2023-02-03T08:07:11;99288.72;;;4.44;100.00
2785;BME280;57944;48.722;9.316;2023-02-03T08:09:44;99300.69;;;4.63;100.00
2785;BME280;57944;48.722;9.316;2023-02-03T08:12:14;99311.75;;;4.51;100.00
2785;BME280;57944;48.722;9.316;2023-02-03T08:14:44;99310.56;;;4.66;100.00
2785;BME280;57944;48.722;9.316;2023-02-03T08:17:14;99314.91;;;4.97;100.00
2785;BME280;57944;48.722;9.316;2023-02-03T08:19:44;99309.41;;;5.12;100.00
2785;BME280;57944;48.722;9.316;2023-02-03T08:22:14;99310.69;;;5.28;100.00
2785;BME280;57944;48.722;9.316;2023-02-03T08:24:48;99307.06;;;5.21;100.00
2785;BME280;57944;48.722;9.316;2023-02-03T08:27:20;99302.13;;;5.19;100.00
2785;BME280;57944;48.722;9.316;2023-02-03T08:29:50;99308.75;;;5.10;100.00
2785;BME280;57944;48.722;9.316;2023-02-03T08:32:21;99309.97;;;5.16;100.00
2785;BME280;57944;48.722;9.316;2023-02-03T08:34:52;99315.09;;;5.05;100.00
2785;BME280;57944;48.722;9.316;2023-02-03T08:37:23;99310.19;;;5.34;100.00
2785;BME280;57944;48.722;9.316;2023-02-03T08:39:57;99297.44;;;5.35;100.00
2785;BME280;57944;48.722;9.316;2023-02-03T08:42:27;99298.94;;;5.17;100.00
2785;BME280;57944;48.722;9.316;2023-02-03T08:44:57;99309.28;;;5.14;100.00
2785;BME280;57944;48.722;9.316;2023-02-03T08:47:31;99304.72;;;5.08;100.00
2785;BME280;57944;48.722;9.316;2023-02-03T08:50:04;99338.06;;;5.02;100.00
2785;BME280;57944;48.722;9.316;2023-02-03T08:52:34;99339.72;;;4.91;100.00
2785;BME280;57944;48.722;9.316;2023-02-03T08:55:07;99314.03;;;5.07;100.00
2785;BME280;57944;48.722;9.316;2023-02-03T08:57:38;99316.88;;;5.35;100.00
2785;BME280;57944;48.722;9.316;2023-02-03T09:00:10;99292.16;;;5.48;100.00
2785;BME280;57944;48.722;9.316;2023-02-03T09:02:41;99304.34;;;5.33;100.00
2785;BME280;57944;48.722;9.316;2023-02-03T09:05:11;99306.28;;;5.51;100.00
2785;BME280;57944;48.722;9.316;2023-02-03T09:07:44;99304.72;;;5.59;100.00
2785;BME280;57944;48.722;9.316;2023-02-03T09:10:16;99309.78;;;5.59;100.00
2785;BME280;57944;48.722;9.316;2023-02-03T09:12:46;99305.81;;;5.67;100.00
2785;BME280;57944;48.722;9.316;2023-02-03T09:15:17;99294.13;;;5.66;100.00
2785;BME280;57944;48.722;9.316;2023-02-03T09:17:47;99309.50;;;5.63;100.00
2785;BME280;57944;48.722;9.316;2023-02-03T09:20:17;99304.84;;;5.58;100.00
2785;BME280;57944;48.722;9.316;2023-02-03T09:22:48;99298.66;;;5.81;100.00
2785;BME280;57944;48.722;9.316;2023-02-03T09:25:20;99279.59;;;5.68;100.00
2785;BME280;57944;48.722;9.316;2023-02-03T09:27:50;99292.72;;;5.92;100.00
2785;BME280;57944;48.722;9.316;2023-02-03T09:30:21;99284.41;;;6.21;100.00
2785;BME280;57944;48.722;9.316;2023-02-03T09:32:52;99279.59;;;6.18;100.00
2785;BME280;57944;48.722;9.316;2023-02-03T09:35:22;99296.44;;;6.58;100.00
2785;BME280;57944;48.722;9.316;2023-02-03T09:37:53;99311.09;;;6.64;100.00
2785;BME280;57944;48.722;9.316;2023-02-03T09:40:30;99307.38;;;6.58;100.00
2785;BME280;57944;48.722;9.316;2023-02-03T09:43:14;99306.81;;;6.45;100.00
2785;BME280;57944;48.722;9.316;2023-02-03T09:45:50;99311.47;;;6.40;100.00
2785;BME280;57944;48.722;9.316;2023-02-03T09:48:29;99312.25;;;6.40;100.00
2785;BME280;57944;48.722;9.316;2023-02-03T09:51:03;99315.34;;;6.24;100.00
2785;BME280;57944;48.722;9.316;2023-02-03T09:53:40;99310.94;;;6.46;100.00
2785;BME280;57944;48.722;9.316;2023-02-03T09:56:26;99310.56;;;6.51;100.00
2785;BME280;57944;48.722;9.316;2023-02-03T09:58:58;99315.88;;;6.28;100.00
2785;BME280;57944;48.722;9.316;2023-02-03T10:01:41;99311.63;;;6.38;100.00
2785;BME280;57944;48.722;9.316;2023-02-03T10:04:25;99298.81;;;6.30;100.00
2785;BME280;57944;48.722;9.316;2023-02-03T10:07:10;99302.28;;;6.39;100.00
2785;BME280;57944;48.722;9.316;2023-02-03T10:09:55;99298.28;;;6.56;100.00
2785;BME280;57944;48.722;9.316;2023-02-03T10:12:54;99290.94;;;6.43;100.00
2785;BME280;57944;48.722;9.316;2023-02-03T10:18:47;99292.97;;;6.59;100.00
2785;BME280;57944;48.722;9.316;2023-02-03T10:21:32;99295.88;;;6.74;100.00
2785;BME280;57944;48.722;9.316;2023-02-03T10:24:09;99303.22;;;6.77;100.00
2785;BME280;57944;48.722;9.316;2023-02-03T10:26:41;99302.53;;;6.84;100.00
2785;BME280;57944;48.722;9.316;2023-02-03T10:29:19;99307.88;;;6.81;100.00
2785;BME280;57944;48.722;9.316;2023-02-03T10:31:49;99302.50;;;7.04;100.00
2785;BME280;57944;48.722;9.316;2023-02-03T10:34:24;99303.31;;;7.04;100.00
2785;BME280;57944;48.722;9.316;2023-02-03T10:36:57;99307.59;;;7.04;100.00
2785;BME280;57944;48.722;9.316;2023-02-03T10:39:34;99322.81;;;6.65;100.00
2785;BME280;57944;48.722;9.316;2023-02-03T10:42:06;99308.81;;;6.70;100.00
2785;BME280;57944;48.722;9.316;2023-02-03T10:44:42;99312.00;;;6.63;100.00
2785;BME280;57944;48.722;9.316;2023-02-03T10:47:23;99311.88;;;6.74;100.00
2785;BME280;57944;48.722;9.316;2023-02-03T10:49:56;99305.34;;;6.81;100.00
2785;BME280;57944;48.722;9.316;2023-02-03T10:52:30;99283.59;;;6.88;100.00
2785;BME280;57944;48.722;9.316;2023-02-03T10:55:05;99283.97;;;7.03;100.00
2785;BME280;57944;48.722;9.316;2023-02-03T10:57:37;99275.81;;;7.19;100.00
2785;BME280;57944;48.722;9.316;2023-02-03T11:00:22;99278.41;;;7.37;100.00
2785;BME280;57944;48.722;9.316;2023-02-03T11:03:04;99277.13;;;7.23;100.00
2785;BME280;57944;48.722;9.316;2023-02-03T11:05:34;99268.25;;;7.47;100.00
2785;BME280;57944;48.722;9.316;2023-02-03T11:08:14;99265.88;;;7.63;100.00
2785;BME280;57944;48.722;9.316;2023-02-03T11:10:44;99260.84;;;7.81;100.00
2785;BME280;57944;48.722;9.316;2023-02-03T11:13:20;99272.06;;;8.06;100.00
2785;BME280;57944;48.722;9.316;2023-02-03T11:15:57;99276.56;;;8.12;100.00
2785;BME280;57944;48.722;9.316;2023-02-03T11:18:51;99275.72;;;7.94;100.00
2785;BME280;57944;48.722;9.316;2023-02-03T11:21:25;99257.28;;;7.74;100.00
2785;BME280;57944;48.722;9.316;2023-02-03T11:24:03;99256.06;;;7.78;100.00
2785;BME280;57944;48.722;9.316;2023-02-03T11:26:43;99241.06;;;7.57;100.00
2785;BME280;57944;48.722;9.316;2023-02-03T11:29:18;99259.41;;;7.51;100.00
2785;BME280;57944;48.722;9.316;2023-02-03T11:31:55;99251.38;;;7.18;100.00
2785;BME280;57944;48.722;9.316;2023-02-03T11:34:30;99249.03;;;6.87;100.00
2785;BME280;57944;48.722;9.316;2023-02-03T11:37:25;99235.88;;;6.74;100.00
2785;BME280;57944;48.722;9.316;2023-02-03T11:40:11;99241.03;;;6.92;100.00
2785;BME280;57944;48.722;9.316;2023-02-03T11:42:44;99253.97;;;6.99;100.00
2785;BME280;57944;48.722;9.316;2023-02-03T11:45:24;99252.66;;;6.94;100.00
2785;BME280;57944;48.722;9.316;2023-02-03T11:48:02;99234.34;;;7.10;100.00
2785;BME280;57944;48.722;9.316;2023-02-03T11:50:41;99235.16;;;7.01;100.00
2785;BME280;57944;48.722;9.316;2023-02-03T11:53:27;99231.94;;;7.09;100.00
2785;BME280;57944;48.722;9.316;2023-02-03T11:56:22;99208.72;;;7.04;100.00
2785;BME280;57944;48.722;9.316;2023-02-03T11:59:21;99215.13;;;7.08;100.00
2785;BME280;57944;48.722;9.316;2023-02-03T12:02:37;99217.28;;;7.03;100.00
2785;BME280;57944;48.722;9.316;2023-02-03T12:05:31;99208.34;;;6.99;100.00
2785;BME280;57944;48.722;9.316;2023-02-03T12:08:22;99207.53;;;7.08;100.00
2785;BME280;57944;48.722;9.316;2023-02-03T12:11:16;99208.56;;;7.15;100.00
2785;BME280;57944;48.722;9.316;2023-02-03T12:14:13;99216.78;;;7.27;100.00
2785;BME280;57944;48.722;9.316;2023-02-03T12:17:25;99210.63;;;7.29;100.00
2785;BME280;57944;48.722;9.316;2023-02-03T12:20:20;99209.13;;;7.09;100.00
2785;BME280;57944;48.722;9.316;2023-02-03T12:23:02;99211.41;;;7.30;100.00
2785;BME280;57944;48.722;9.316;2023-02-03T12:25:55;99203.47;;;7.25;100.00
2785;BME280;57944;48.722;9.316;2023-02-03T12:28:43;99204.16;;;7.17;100.00
2785;BME280;57944;48.722;9.316;2023-02-03T12:31:24;99208.25;;;7.28;100.00
2785;BME280;57944;48.722;9.316;2023-02-03T12:34:05;99209.59;;;7.22;100.00
2785;BME280;57944;48.722;9.316;2023-02-03T12:36:46;99202.91;;;7.21;100.00
2785;BME280;57944;48.722;9.316;2023-02-03T12:39:26;99199.47;;;7.12;100.00
2785;BME280;57944;48.722;9.316;2023-02-03T12:42:03;99190.78;;;7.25;100.00
2785;BME280;57944;48.722;9.316;2023-02-03T12:44:44;99186.69;;;7.14;100.00
2785;BME280;57944;48.722;9.316;2023-02-03T12:47:25;99183.19;;;7.15;100.00
2785;BME280;57944;48.722;9.316;2023-02-03T12:50:02;99160.34;;;7.25;100.00
2785;BME280;57944;48.722;9.316;2023-02-03T12:52:42;99150.06;;;7.26;100.00
2785;BME280;57944;48.722;9.316;2023-02-03T12:55:22;99152.19;;;7.31;100.00
2785;BME280;57944;48.722;9.316;2023-02-03T12:57:59;99142.41;;;7.08;100.00
2785;BME280;57944;48.722;9.316;2023-02-03T13:00:42;99138.34;;;7.15;100.00
2785;BME280;57944;48.722;9.316;2023-02-03T13:03:23;99131.13;;;6.93;100.00
2785;BME280;57944;48.722;9.316;2023-02-03T13:06:04;99127.22;;;6.99;100.00
2785;BME280;57944;48.722;9.316;2023-02-03T13:08:48;99133.91;;;7.00;100.00
2785;BME280;57944;48.722;9.316;2023-02-03T13:11:25;99146.31;;;7.03;100.00
2785;BME280;57944;48.722;9.316;2023-02-03T13:14:09;99142.63;;;6.87;100.00
2785;BME280;57944;48.722;9.316;2023-02-03T13:16:49;99116.34;;;6.88;100.00
2785;BME280;57944;48.722;9.316;2023-02-03T13:19:29;99123.41;;;6.94;100.00
2785;BME280;57944;48.722;9.316;2023-02-03T13:22:10;99115.81;;;6.85;100.00
2785;BME280;57944;48.722;9.316;2023-02-03T13:24:47;99118.56;;;7.01;100.00
2785;BME280;57944;48.722;9.316;2023-02-03T13:27:38;99116.00;;;7.01;100.00
2785;BME280;57944;48.722;9.316;2023-02-03T13:30:48;99121.06;;;7.11;100.00
2785;BME280;57944;48.722;9.316;2023-02-03T13:33:56;99111.94;;;6.90;100.00
2785;BME280;57944;48.722;9.316;2023-02-03T13:36:58;99114.47;;;6.90;100.00
2785;BME280;57944;48.722;9.316;2023-02-03T13:42:57;99088.00;;;7.03;100.00
2785;BME280;57944;48.722;9.316;2023-02-03T13:45:32;99101.06;;;7.08;100.00
2785;BME280;57944;48.722;9.316;2023-02-03T13:48:12;99093.88;;;7.03;100.00
2785;BME280;57944;48.722;9.316;2023-02-03T13:50:45;99088.09;;;7.11;100.00
2785;BME280;57944;48.722;9.316;2023-02-03T13:53:19;99092.13;;;7.04;100.00
2785;BME280;57944;48.722;9.316;2023-02-03T13:55:57;99072.81;;;7.03;100.00
2785;BME280;57944;48.722;9.316;2023-02-03T13:58:30;99077.91;;;6.93;100.00
2785;BME280;57944;48.722;9.316;2023-02-03T14:01:28;99075.06;;;7.06;100.00
2785;BME280;57944;48.722;9.316;2023-02-03T14:04:01;99093.28;;;6.91;100.00
2785;BME280;57944;48.722;9.316;2023-02-03T14:06:58;99108.19;;;6.94;100.00